Forestal Pacifico — HPLG — position and weather

sailwx.info

Track history (hours):
 
Tides and Currents Weather Stations Pressure Air Temp Water Temp Dewpoint Dewpoint Depression Visibility Wind Speed Wind Dir Waves Ship Positions

Forestal Pacifico

Last reported at 2017-Oct-29 13:09 UTC. Time now 2017-Nov-18 10:18 UTC.
Position N 01°23' E 104°26'.
Warning: this ship's position is 19 days out of date.

Length 199.9 m; beam 32.2 m.

Type: Cargo ship. MMSI: 354373000.

Date/timePositionNaut miles runAvg speedWind from/ knotsBaromVisibWave heightAir tempDewpointWater temp
2017-Oct-29 13:09N 01°23' E 104°26'2311.5
2017-Oct-29 11:07N 01°15' E 104°04'1 6.2
2017-Oct-29 10:56N 01°16' E 104°03'2 5.0
2017-Oct-29 10:30N 01°18' E 104°01'1 0.8
2017-Oct-29 09:19N 01°17' E 104°00'0 0.1
2017-Oct-29 07:34N 01°17' E 104°00'0 0.5
2017-Oct-29 07:13N 01°18' E 104°00'0 0.4
2017-Oct-29 06:55N 01°18' E 104°00'0 0.0
2017-Oct-29 06:28N 01°18' E 104°00'0 0.0
2017-Oct-29 05:55N 01°18' E 104°00'31 2.8
2017-Oct-28 19:00N 01°07' E 103°31'610.0
2017-Oct-28 18:27N 01°10' E 103°27'4 9.8
2017-Oct-28 18:00N 01°12' E 103°23'510.2
2017-Oct-28 17:30N 01°16' E 103°19'  
Track history (hours):
 
Tides and Currents Weather Stations Pressure Air Temp Water Temp Dewpoint Dewpoint Depression Visibility Wind Speed Wind Dir Waves Ship Positions

Forestal Pacifico

Last reported at 2017-Oct-29 13:09 UTC. Time now 2017-Nov-18 10:18 UTC.
Position N 01°23' E 104°26'.
Warning: this ship's position is 19 days out of date.

Length 199.9 m; beam 32.2 m.

Type: Cargo ship. MMSI: 354373000.

Date/timePositionNaut miles runAvg speedWind from/ knotsBaromVisibWave heightAir tempDewpointWater temp
2017-Oct-29 13:09N 01°23' E 104°26'2311.5
2017-Oct-29 11:07N 01°15' E 104°04'1 6.2
2017-Oct-29 10:56N 01°16' E 104°03'2 5.0
2017-Oct-29 10:30N 01°18' E 104°01'1 0.8
2017-Oct-29 09:19N 01°17' E 104°00'0 0.1
2017-Oct-29 07:34N 01°17' E 104°00'0 0.5
2017-Oct-29 07:13N 01°18' E 104°00'0 0.4
2017-Oct-29 06:55N 01°18' E 104°00'0 0.0
2017-Oct-29 06:28N 01°18' E 104°00'0 0.0
2017-Oct-29 05:55N 01°18' E 104°00'31 2.8
2017-Oct-28 19:00N 01°07' E 103°31'610.0
2017-Oct-28 18:27N 01°10' E 103°27'4 9.8
2017-Oct-28 18:00N 01°12' E 103°23'510.2
2017-Oct-28 17:30N 01°16' E 103°19'  

Dump ship's entire track history